createdAt,value
2019-03-28T00:02:01.142Z,97515.24
2019-03-28T00:04:27.246Z,97516.66
2019-03-28T00:06:53.477Z,97513.66
2019-03-28T00:09:19.884Z,97517.50
2019-03-28T00:11:46.217Z,97511.04
2019-03-28T00:14:12.574Z,97515.89
2019-03-28T00:16:38.766Z,97515.44
2019-03-28T00:19:05.135Z,97507.92
2019-03-28T00:21:31.351Z,97513.66
2019-03-28T00:23:59.372Z,97506.61
2019-03-28T00:26:30.393Z,97505.89
2019-03-28T00:28:53.631Z,97512.45
2019-03-28T00:31:21.405Z,97511.59
2019-03-28T00:33:47.847Z,97511.33
2019-03-28T00:36:13.997Z,97514.41
2019-03-28T00:38:40.190Z,97507.58
2019-03-28T00:41:06.439Z,97499.05
2019-03-28T00:43:32.661Z,97499.82
2019-03-28T00:45:58.795Z,97497.20
2019-03-28T00:48:24.967Z,97499.42
2019-03-28T00:50:51.116Z,97504.12
2019-03-28T00:53:17.343Z,97500.75
2019-03-28T00:55:43.527Z,97502.70
2019-03-28T00:58:09.699Z,97502.52
2019-03-28T01:00:36.055Z,97498.12
2019-03-28T01:03:02.324Z,97492.23
2019-03-28T01:05:29.589Z,97501.78
2019-03-28T01:07:55.768Z,97492.69
2019-03-28T01:10:22.219Z,97502.82
2019-03-28T01:12:48.564Z,97496.53
2019-03-28T01:15:14.732Z,97498.60
2019-03-28T01:17:40.946Z,97498.11
2019-03-28T01:20:07.906Z,97506.08
2019-03-28T01:22:34.235Z,97507.02
2019-03-28T01:25:00.437Z,97499.06
2019-03-28T01:27:26.634Z,97502.53
2019-03-28T01:29:52.755Z,97497.20
2019-03-28T01:32:18.924Z,97496.15
2019-03-28T01:34:45.147Z,97496.25
2019-03-28T01:37:11.311Z,97495.79
2019-03-28T01:39:37.475Z,97495.88
2019-03-28T01:42:03.697Z,97493.98
2019-03-28T01:44:29.790Z,97493.53
2019-03-28T01:46:56.033Z,97493.98
2019-03-28T01:49:22.196Z,97494.94
2019-03-28T01:51:48.394Z,97495.03
2019-03-28T01:54:14.532Z,97494.27
2019-03-28T01:56:40.757Z,97494.76
2019-03-28T01:59:06.857Z,97502.52
2019-03-28T02:01:33.202Z,97498.86
2019-03-28T02:03:59.302Z,97502.07
2019-03-28T02:06:25.534Z,97495.70
2019-03-28T02:08:51.800Z,97494.39
2019-03-28T02:11:18.067Z,97491.95
2019-03-28T02:13:44.374Z,97492.87
2019-03-28T02:16:10.563Z,97488.66
2019-03-28T02:18:36.881Z,97496.62
2019-03-28T02:21:03.090Z,97489.70
2019-03-28T02:23:29.250Z,97489.21
2019-03-28T02:25:55.462Z,97489.30
2019-03-28T02:28:21.578Z,97480.89
2019-03-28T02:30:47.780Z,97484.34
2019-03-28T02:33:14.902Z,97482.57
2019-03-28T02:35:41.156Z,97483.13
2019-03-28T02:38:07.280Z,97479.19
2019-03-28T02:40:33.497Z,97486.23
2019-03-28T02:42:59.617Z,97488.45
2019-03-28T02:45:25.807Z,97488.45
2019-03-28T02:47:52.131Z,97482.85
2019-03-28T02:50:18.306Z,97486.88
2019-03-28T02:52:44.459Z,97486.11
2019-03-28T02:55:10.817Z,97495.78
2019-03-28T02:57:41.635Z,97488.83
2019-03-28T03:00:06.076Z,97494.07
2019-03-28T03:02:32.902Z,97490.32
2019-03-28T03:04:59.039Z,97488.55
2019-03-28T03:07:25.351Z,97492.85
2019-03-28T03:09:51.592Z,97494.16
2019-03-28T03:12:17.993Z,97497.73
2019-03-28T03:14:44.090Z,97491.55
2019-03-28T03:17:10.342Z,97495.97
2019-03-28T03:19:36.435Z,97492.67
2019-03-28T03:22:03.124Z,97497.64
2019-03-28T03:24:29.365Z,97493.70
2019-03-28T03:26:55.597Z,97498.09
2019-03-28T03:29:21.697Z,97499.41
2019-03-28T03:31:47.904Z,97502.48
2019-03-28T03:34:14.020Z,97497.73
2019-03-28T03:36:40.246Z,97501.48
2019-03-28T03:39:07.271Z,97501.84
2019-03-28T03:41:33.592Z,97499.69
2019-03-28T03:43:59.758Z,97495.66
2019-03-28T03:46:25.922Z,97492.58
2019-03-28T03:48:52.068Z,97499.23
2019-03-28T03:51:18.318Z,97500.99
2019-03-28T03:53:44.411Z,97497.92
2019-03-28T03:56:10.661Z,97501.30
2019-03-28T03:58:36.844Z,97501.30
2019-03-28T04:01:03.089Z,97492.67
2019-03-28T04:03:29.650Z,97498.77
2019-03-28T04:05:56.206Z,97495.30
2019-03-28T04:08:22.501Z,97491.91
2019-03-28T04:10:48.654Z,97485.84
2019-03-28T04:13:14.884Z,97488.92
2019-03-28T04:15:41.183Z,97486.66
2019-03-28T04:18:07.364Z,97478.44
2019-03-28T04:20:33.529Z,97488.73
2019-03-28T04:22:59.786Z,97489.20
2019-03-28T04:25:25.895Z,97491.91
2019-03-28T04:27:52.113Z,97488.92
2019-03-28T04:30:18.477Z,97492.85
2019-03-28T04:32:44.728Z,97495.84
2019-03-28T04:35:10.982Z,97494.08
2019-03-28T04:37:37.164Z,97498.00
2019-03-28T04:40:05.862Z,97506.23
2019-03-28T04:42:32.055Z,97504.38
2019-03-28T04:44:58.235Z,97501.75
2019-03-28T04:47:24.390Z,97501.20
2019-03-28T04:49:50.735Z,97514.41
2019-03-28T04:52:16.928Z,97513.83
2019-03-28T04:54:43.219Z,97514.31
2019-03-28T04:57:09.414Z,97519.16
2019-03-28T04:59:35.778Z,97514.86
2019-03-28T05:02:03.743Z,97514.95
2019-03-28T05:04:30.284Z,97510.66
2019-03-28T05:06:56.539Z,97512.25
2019-03-28T05:09:23.366Z,97519.66
2019-03-28T05:11:49.854Z,97514.95
2019-03-28T05:14:16.117Z,97518.70
2019-03-28T05:16:42.393Z,97525.72
2019-03-28T05:19:08.661Z,97524.59
2019-03-28T05:21:34.810Z,97525.36
2019-03-28T05:24:01.053Z,97529.20
2019-03-28T05:26:27.212Z,97527.80
2019-03-28T05:28:57.868Z,97533.41
2019-03-28T05:31:21.640Z,97536.88
2019-03-28T05:33:47.828Z,97534.53
2019-03-28T05:36:13.993Z,97537.16
2019-03-28T05:38:40.224Z,97541.94
2019-03-28T05:41:06.414Z,97538.77
2019-03-28T05:43:32.856Z,97539.69
2019-03-28T05:46:00.146Z,97539.69
2019-03-28T05:48:26.311Z,97537.06
2019-03-28T05:50:52.617Z,97540.08
2019-03-28T05:53:18.810Z,97538.28
2019-03-28T05:55:45.081Z,97544.02
2019-03-28T05:58:11.282Z,97542.22
2019-03-28T06:00:39.033Z,97543.07
2019-03-28T06:03:07.521Z,97541.76
2019-03-28T06:05:33.678Z,97538.47
2019-03-28T06:07:59.847Z,97543.53
2019-03-28T06:10:26.001Z,97549.53
2019-03-28T06:12:52.234Z,97545.60
2019-03-28T06:15:18.340Z,97551.39
2019-03-28T06:17:44.693Z,97557.04
2019-03-28T06:20:11.296Z,97551.12
2019-03-28T06:22:37.621Z,97550.39
2019-03-28T06:25:05.875Z,97555.91
2019-03-28T06:27:32.175Z,97553.56
2019-03-28T06:29:58.345Z,97557.89
2019-03-28T06:32:24.547Z,97553.02
2019-03-28T06:34:50.692Z,97555.64
2019-03-28T06:37:16.868Z,97560.33
2019-03-28T06:39:43.030Z,97553.38
2019-03-28T06:42:09.204Z,97557.31
2019-03-28T06:44:35.385Z,97557.70
2019-03-28T06:47:01.578Z,97557.98
2019-03-28T06:49:27.786Z,97561.83
2019-03-28T06:51:54.034Z,97569.61
2019-03-28T06:54:20.174Z,97566.70
2019-03-28T06:56:46.367Z,97572.69
2019-03-28T06:59:13.522Z,97568.75
2019-03-28T07:01:39.699Z,97565.12
2019-03-28T07:04:05.865Z,97565.95
2019-03-28T07:06:32.093Z,97568.38
2019-03-28T07:08:58.453Z,97563.53
2019-03-28T07:11:24.662Z,97563.13
2019-03-28T07:13:50.775Z,97565.76
2019-03-28T07:16:16.998Z,97559.96
2019-03-28T07:18:43.094Z,97571.77
2019-03-28T07:21:09.299Z,97569.14
2019-03-28T07:23:35.406Z,97568.59
2019-03-28T07:26:01.621Z,97573.08
2019-03-28T07:28:27.775Z,97578.41
2019-03-28T07:30:53.952Z,97576.65
2019-03-28T07:33:20.303Z,97578.33
2019-03-28T07:35:46.456Z,97585.28
2019-03-28T07:38:12.722Z,97575.91
2019-03-28T07:40:38.998Z,97569.45
2019-03-28T07:43:05.161Z,97574.11
2019-03-28T07:45:34.331Z,97577.95
2019-03-28T07:47:59.471Z,97574.78
2019-03-28T07:50:25.758Z,97575.36
2019-03-28T07:52:52.083Z,97572.82
2019-03-28T07:55:18.312Z,97574.04
2019-03-28T07:57:44.577Z,97577.89
2019-03-28T08:00:14.200Z,97577.79
2019-03-28T08:02:40.517Z,97575.44
2019-03-28T08:05:08.766Z,97580.78
2019-03-28T08:07:44.864Z,97580.86
2019-03-28T08:10:06.341Z,97580.95
2019-03-28T08:12:32.726Z,97582.27
2019-03-28T08:14:58.884Z,97588.28
2019-03-28T08:17:25.076Z,97590.33
2019-03-28T08:19:51.270Z,97598.11
2019-03-28T08:22:17.436Z,97595.69
2019-03-28T08:24:43.597Z,97593.79
2019-03-28T08:27:09.752Z,97590.25
2019-03-28T08:29:35.929Z,97592.78
2019-03-28T08:32:04.107Z,97594.63
2019-03-28T08:34:31.395Z,97593.22
2019-03-28T08:36:59.023Z,97600.00
2019-03-28T08:39:26.098Z,97598.28
2019-03-28T08:41:52.256Z,97599.50
2019-03-28T08:44:22.473Z,97599.41
2019-03-28T08:46:47.671Z,97602.13
2019-03-28T08:49:13.963Z,97598.58
2019-03-28T08:51:40.167Z,97604.77
2019-03-28T08:54:06.378Z,97604.58
2019-03-28T08:56:32.794Z,97609.08
2019-03-28T08:58:59.020Z,97608.88
2019-03-28T09:01:25.473Z,97609.16
2019-03-28T09:03:51.689Z,97612.16
2019-03-28T09:06:17.852Z,97617.31
2019-03-28T09:08:44.066Z,97610.00
2019-03-28T09:11:10.333Z,97614.50
2019-03-28T09:13:36.498Z,97608.79
2019-03-28T09:16:02.967Z,97617.33
2019-03-28T09:18:29.138Z,97617.59
2019-03-28T09:20:55.516Z,97613.75
2019-03-28T09:23:21.695Z,97612.80
2019-03-28T09:25:47.879Z,97619.67
2019-03-28T09:28:14.112Z,97620.89
2019-03-28T09:30:48.772Z,97609.89
2019-03-28T09:33:09.925Z,97612.52
2019-03-28T09:35:36.275Z,97606.42
2019-03-28T09:38:03.056Z,97617.00
2019-03-28T09:40:29.159Z,97608.07
2019-03-28T09:42:55.479Z,97606.89
2019-03-28T09:45:21.660Z,97604.98
2019-03-28T09:47:47.834Z,97607.91
2019-03-28T09:50:14.087Z,97609.13
2019-03-28T09:52:40.253Z,97608.17
2019-03-28T09:55:06.679Z,97605.28
2019-03-28T09:57:33.122Z,97612.22
2019-03-28T09:59:59.358Z,97611.66
2019-03-28T10:02:25.517Z,97612.38
2019-03-28T10:04:51.722Z,97609.46
2019-03-28T10:07:19.019Z,97606.34
2019-03-28T10:09:45.640Z,97610.38
2019-03-28T10:12:11.854Z,97606.53
2019-03-28T10:14:38.052Z,97602.30
2019-03-28T10:17:04.159Z,97600.28
2019-03-28T10:19:31.458Z,97606.20
2019-03-28T10:21:57.637Z,97602.72
2019-03-28T10:24:23.849Z,97607.97
2019-03-28T10:26:50.025Z,97613.23
2019-03-28T10:29:16.308Z,97608.73
2019-03-28T10:31:42.691Z,97610.20
2019-03-28T10:34:08.919Z,97607.07
2019-03-28T10:36:35.129Z,97604.44
2019-03-28T10:39:01.384Z,97610.36
2019-03-28T10:41:29.540Z,97609.89
2019-03-28T10:43:55.752Z,97609.30
2019-03-28T10:46:22.011Z,97615.21
2019-03-28T10:48:48.225Z,97613.09
2019-03-28T10:51:14.441Z,97615.93
2019-03-28T10:53:40.679Z,97622.41
2019-03-28T10:56:20.501Z,97618.36
2019-03-28T10:58:35.321Z,97611.58
2019-03-28T11:01:01.612Z,97616.28
2019-03-28T11:03:27.875Z,97621.90
2019-03-28T11:05:54.092Z,97622.19
2019-03-28T11:08:20.191Z,97611.97
2019-03-28T11:10:46.396Z,97619.86
2019-03-28T11:13:12.606Z,97616.84
2019-03-28T11:15:38.841Z,97615.81
2019-03-28T11:18:06.113Z,97621.54
2019-03-28T11:20:33.508Z,97617.55
2019-03-28T11:23:02.205Z,97610.86
2019-03-28T11:25:27.837Z,97623.56
2019-03-28T11:27:53.994Z,97623.80
2019-03-28T11:30:20.456Z,97623.48
2019-03-28T11:32:46.556Z,97619.05
2019-03-28T11:35:13.017Z,97621.22
2019-03-28T11:37:39.228Z,97616.80
2019-03-28T11:40:09.200Z,97622.43
2019-03-28T11:42:34.898Z,97617.81
2019-03-28T11:45:01.341Z,97612.65
2019-03-28T11:47:28.903Z,97615.09
2019-03-28T11:49:55.854Z,97610.80
2019-03-28T11:52:22.234Z,97614.48
2019-03-28T11:54:48.458Z,97614.69
2019-03-28T11:57:15.970Z,97614.48
2019-03-28T11:59:42.424Z,97617.12
2019-03-28T12:02:19.561Z,97602.35
2019-03-28T12:04:38.831Z,97608.98
2019-03-28T12:07:05.050Z,97604.19
2019-03-28T12:09:31.348Z,97600.14
2019-03-28T12:11:57.510Z,97604.47
2019-03-28T12:14:23.730Z,97603.98
2019-03-28T12:16:49.888Z,97598.72
2019-03-28T12:19:17.735Z,97601.43
2019-03-28T12:21:44.722Z,97610.69
2019-03-28T12:24:10.882Z,97600.16
2019-03-28T12:26:37.106Z,97608.42
2019-03-28T12:29:05.785Z,97599.80
2019-03-28T12:31:33.247Z,97603.75
2019-03-28T12:33:59.491Z,97610.69
2019-03-28T12:36:25.695Z,97607.05
2019-03-28T12:38:51.873Z,97613.89
2019-03-28T12:41:18.112Z,97613.17
2019-03-28T12:43:44.345Z,97601.43
2019-03-28T12:46:10.546Z,97606.38
2019-03-28T12:48:36.736Z,97603.56
2019-03-28T12:51:02.931Z,97609.69
2019-03-28T12:53:29.146Z,97607.80
2019-03-28T12:55:55.255Z,97606.84
2019-03-28T12:58:22.423Z,97605.78
2019-03-28T13:00:48.654Z,97605.58
2019-03-28T13:03:14.846Z,97606.48
2019-03-28T13:05:41.059Z,97607.13
2019-03-28T13:08:07.371Z,97616.23
2019-03-28T13:10:33.774Z,97616.02
2019-03-28T13:12:59.993Z,97612.44
2019-03-28T13:15:26.101Z,97615.25
2019-03-28T13:17:52.303Z,97608.81
2019-03-28T13:20:21.951Z,97614.69
2019-03-28T13:22:46.629Z,97617.97
2019-03-28T13:25:12.959Z,97614.38
2019-03-28T13:27:39.095Z,97617.81
2019-03-28T13:30:10.486Z,97616.11
2019-03-28T13:32:42.222Z,97623.19
2019-03-28T13:35:06.850Z,97619.45
2019-03-28T13:37:33.962Z,97619.34
2019-03-28T13:40:00.353Z,97624.40
2019-03-28T13:42:26.411Z,97623.08
2019-03-28T13:44:52.594Z,97621.77
2019-03-28T13:47:18.770Z,97616.11
2019-03-28T13:49:44.904Z,97621.23
2019-03-28T13:52:11.062Z,97619.91
2019-03-28T13:54:37.289Z,97615.50
2019-03-28T13:57:03.517Z,97614.28
2019-03-28T13:59:29.634Z,97618.59
2019-03-28T14:01:55.824Z,97611.30
2019-03-28T14:04:21.971Z,97619.55
2019-03-28T14:06:48.210Z,97612.86
2019-03-28T14:09:14.467Z,97607.70
2019-03-28T14:11:40.754Z,97612.91
2019-03-28T14:14:07.033Z,97612.34
2019-03-28T14:16:33.590Z,97613.16
2019-03-28T14:18:59.868Z,97615.18
2019-03-28T14:21:26.075Z,97612.16
2019-03-28T14:23:52.242Z,97616.75
2019-03-28T14:26:18.490Z,97612.27
2019-03-28T14:28:44.739Z,97614.64
2019-03-28T14:31:10.955Z,97613.93
2019-03-28T14:33:37.261Z,97611.30
2019-03-28T14:36:03.359Z,97615.60
2019-03-28T14:38:31.675Z,97620.12
2019-03-28T14:40:58.456Z,97613.13
2019-03-28T14:43:25.912Z,97611.33
2019-03-28T14:45:52.190Z,97617.80
2019-03-28T14:48:18.341Z,97613.49
2019-03-28T14:50:44.678Z,97613.85
2019-03-28T14:53:10.867Z,97612.08
2019-03-28T14:55:38.353Z,97610.44
2019-03-28T14:58:04.845Z,97605.92
2019-03-28T15:00:47.116Z,97616.92
2019-03-28T15:03:25.734Z,97606.03
2019-03-28T15:05:44.148Z,97617.77
2019-03-28T15:08:10.385Z,97610.34
2019-03-28T15:10:36.619Z,97613.22
2019-03-28T15:13:02.774Z,97608.81
2019-03-28T15:15:29.042Z,97610.48
2019-03-28T15:17:55.196Z,97610.84
2019-03-28T15:20:21.524Z,97605.01
2019-03-28T15:22:47.671Z,97606.79
2019-03-28T15:25:14.017Z,97604.76
2019-03-28T15:27:40.232Z,97598.64
2019-03-28T15:30:07.719Z,97605.43
2019-03-28T15:32:34.037Z,97609.48
2019-03-28T15:35:00.327Z,97607.17
2019-03-28T15:37:26.775Z,97601.80
2019-03-28T15:39:52.942Z,97605.28
2019-03-28T15:42:19.243Z,97596.53
2019-03-28T15:44:45.620Z,97597.48
2019-03-28T15:47:11.939Z,97603.61
2019-03-28T15:49:38.211Z,97602.50
2019-03-28T15:52:05.099Z,97594.50
2019-03-28T15:54:31.615Z,97598.80
2019-03-28T15:56:58.709Z,97608.59
2019-03-28T15:59:25.083Z,97602.11
2019-03-28T16:01:51.294Z,97603.81
2019-03-28T16:04:17.569Z,97599.27
2019-03-28T16:06:43.719Z,97603.22
2019-03-28T16:09:09.956Z,97604.92
2019-03-28T16:11:36.038Z,97606.23
2019-03-28T16:14:02.271Z,97601.91
2019-03-28T16:16:28.599Z,97602.96
2019-03-28T16:18:55.160Z,97604.39
2019-03-28T16:21:21.295Z,97604.84
2019-03-28T16:23:47.468Z,97601.91
2019-03-28T16:26:13.600Z,97598.70
2019-03-28T16:28:40.794Z,97603.81
2019-03-28T16:31:07.038Z,97600.80
2019-03-28T16:33:33.446Z,97603.81
2019-03-28T16:35:59.586Z,97602.50
2019-03-28T16:38:25.801Z,97597.13
2019-03-28T16:40:51.969Z,97596.38
2019-03-28T16:43:18.162Z,97598.66
2019-03-28T16:45:44.307Z,97605.59
2019-03-28T16:48:10.462Z,97605.70
2019-03-28T16:50:36.656Z,97613.23
2019-03-28T16:53:03.022Z,97614.16
2019-03-28T16:55:29.206Z,97616.91
2019-03-28T16:57:55.484Z,97619.17
2019-03-28T17:00:25.457Z,97619.53
2019-03-28T17:02:51.726Z,97613.45
2019-03-28T17:05:17.894Z,97613.06
2019-03-28T17:07:44.311Z,97616.44
2019-03-28T17:10:33.313Z,97619.92
2019-03-28T17:12:59.593Z,97615.48
2019-03-28T17:15:25.952Z,97609.50
2019-03-28T17:17:53.382Z,97615.69
2019-03-28T17:20:20.514Z,97616.55
2019-03-28T17:22:46.836Z,97613.81
2019-03-28T17:25:14.146Z,97616.80
2019-03-28T17:27:40.507Z,97619.92
2019-03-28T17:30:07.440Z,97620.18
2019-03-28T17:32:38.793Z,97623.27
2019-03-28T17:35:05.405Z,97627.72
2019-03-28T17:37:31.821Z,97633.19
2019-03-28T17:39:57.981Z,97634.30
2019-03-28T17:42:24.245Z,97637.55
2019-03-28T17:44:50.509Z,97640.47
2019-03-28T17:47:16.724Z,97636.20
2019-03-28T17:49:42.934Z,97640.61
2019-03-28T17:52:09.299Z,97637.98
2019-03-28T17:54:35.503Z,97637.98
2019-03-28T17:57:01.761Z,97639.30
2019-03-28T17:59:27.959Z,97641.57
2019-03-28T18:01:54.199Z,97638.84
2019-03-28T18:04:23.201Z,97641.72
2019-03-28T18:06:49.227Z,97642.68
2019-03-28T18:09:15.445Z,97638.84
2019-03-28T18:11:41.776Z,97638.94
2019-03-28T18:14:08.169Z,97640.72
2019-03-28T18:16:34.422Z,97644.67
2019-03-28T18:19:00.825Z,97644.20
2019-03-28T18:21:26.939Z,97646.84
2019-03-28T18:23:53.275Z,97651.25
2019-03-28T18:26:19.427Z,97654.73
2019-03-28T18:28:45.637Z,97659.50
2019-03-28T18:31:12.828Z,97667.80
2019-03-28T18:33:39.060Z,97671.25
2019-03-28T18:36:05.285Z,97671.51
2019-03-28T18:38:31.496Z,97673.67
2019-03-28T18:40:57.606Z,97677.42
2019-03-28T18:43:24.001Z,97675.53
2019-03-28T18:45:50.153Z,97676.36
2019-03-28T18:48:28.164Z,97676.64
2019-03-28T18:50:45.554Z,97675.12
2019-03-28T18:53:11.880Z,97670.67
2019-03-28T18:55:38.275Z,97668.53
2019-03-28T18:58:05.625Z,97677.16
2019-03-28T19:00:32.973Z,97674.91
2019-03-28T19:03:01.990Z,97673.95
2019-03-28T19:05:29.074Z,97684.13
2019-03-28T19:07:55.357Z,97681.49
2019-03-28T19:10:21.566Z,97685.44
2019-03-28T19:12:47.938Z,97682.31
2019-03-28T19:15:14.486Z,97681.85
2019-03-28T19:17:40.722Z,97678.36
2019-03-28T19:20:08.212Z,97678.47
2019-03-28T19:22:35.688Z,97677.25
2019-03-28T19:25:04.287Z,97682.52
2019-03-28T19:27:30.476Z,97684.05
2019-03-28T19:29:56.629Z,97690.53
2019-03-28T19:32:22.883Z,97689.81
2019-03-28T19:34:49.065Z,97688.95
2019-03-28T19:37:15.596Z,97696.00
2019-03-28T19:39:41.783Z,97689.52
2019-03-28T19:42:08.062Z,97689.06
2019-03-28T19:44:34.738Z,97694.33
2019-03-28T19:47:01.039Z,97685.11
2019-03-28T19:49:27.251Z,97684.64
2019-03-28T19:51:53.503Z,97691.13
2019-03-28T19:54:19.631Z,97685.97
2019-03-28T19:56:46.697Z,97684.75
2019-03-28T19:59:12.922Z,97693.86
2019-03-28T20:01:39.138Z,97689.06
2019-03-28T20:04:05.331Z,97685.11
2019-03-28T20:06:31.638Z,97691.33
2019-03-28T20:08:57.805Z,97688.70
2019-03-28T20:11:24.147Z,97698.73
2019-03-28T20:13:50.508Z,97699.59
2019-03-28T20:16:16.946Z,97696.11
2019-03-28T20:18:43.310Z,97692.05
2019-03-28T20:21:09.729Z,97695.90
2019-03-28T20:23:36.088Z,97703.34
2019-03-28T20:26:03.862Z,97702.48
2019-03-28T20:28:30.521Z,97704.19
2019-03-28T20:30:56.814Z,97705.97
2019-03-28T20:33:25.069Z,97702.02
2019-03-28T20:36:11.801Z,97706.92
2019-03-28T20:38:19.457Z,97711.23
2019-03-28T20:40:46.006Z,97708.24
2019-03-28T20:43:12.239Z,97710.48
2019-03-28T20:45:38.548Z,97707.13
2019-03-28T20:48:05.710Z,97706.84
2019-03-28T20:50:32.277Z,97709.69
2019-03-28T20:52:58.501Z,97707.55
2019-03-28T20:55:25.549Z,97706.33
2019-03-28T20:57:53.190Z,97712.81
2019-03-28T21:00:40.478Z,97710.54
2019-03-28T21:03:07.275Z,97708.27
2019-03-28T21:05:33.733Z,97708.27
2019-03-28T21:07:59.964Z,97702.53
2019-03-28T21:10:26.437Z,97703.75
2019-03-28T21:12:53.250Z,97708.91
2019-03-28T21:15:19.834Z,97709.88
2019-03-28T21:17:46.353Z,97706.84
2019-03-28T21:20:12.679Z,97702.64
2019-03-28T21:22:39.110Z,97697.97
2019-03-28T21:25:06.574Z,97701.94
2019-03-28T21:27:33.149Z,97701.03
2019-03-28T21:30:00.007Z,97695.97
2019-03-28T21:32:26.306Z,97698.45
2019-03-28T21:34:56.167Z,97700.22
2019-03-28T21:37:20.607Z,97699.86
2019-03-28T21:39:46.782Z,97693.39
2019-03-28T21:42:13.056Z,97692.82
2019-03-28T21:44:39.308Z,97692.23
2019-03-28T21:47:05.565Z,97692.33
2019-03-28T21:49:31.770Z,97687.66
2019-03-28T21:51:57.990Z,97697.48
2019-03-28T21:54:24.893Z,97704.36
2019-03-28T21:56:51.130Z,97700.67
2019-03-28T21:59:17.799Z,97702.25
2019-03-28T22:01:44.088Z,97696.88
2019-03-28T22:04:11.217Z,97699.05
2019-03-28T22:06:42.886Z,97700.72
2019-03-28T22:09:05.653Z,97697.27
2019-03-28T22:11:33.898Z,97698.59
2019-03-28T22:14:00.706Z,97703.75
2019-03-28T22:16:27.846Z,97697.98
2019-03-28T22:18:54.000Z,97702.33
2019-03-28T22:21:20.165Z,97697.17
2019-03-28T22:23:46.840Z,97699.41
2019-03-28T22:26:12.986Z,97697.63
2019-03-28T22:28:39.199Z,97706.38
2019-03-28T22:31:05.362Z,97706.38
2019-03-28T22:33:31.575Z,97700.27
2019-03-28T22:35:57.784Z,97702.33
2019-03-28T22:38:23.998Z,97701.84
2019-03-28T22:40:50.148Z,97702.69
2019-03-28T22:43:16.351Z,97698.73
2019-03-28T22:45:43.810Z,97708.31
2019-03-28T22:48:11.481Z,97703.64
2019-03-28T22:50:39.310Z,97697.27
2019-03-28T22:53:05.521Z,97698.69
2019-03-28T22:55:31.614Z,97703.95
2019-03-28T22:57:57.926Z,97701.03
2019-03-28T23:00:26.185Z,97702.73
2019-03-28T23:02:54.878Z,97701.42
2019-03-28T23:05:21.324Z,97703.10
2019-03-28T23:07:47.765Z,97696.62
2019-03-28T23:10:14.453Z,97704.06
2019-03-28T23:12:40.710Z,97704.16
2019-03-28T23:15:07.726Z,97700.67
2019-03-28T23:17:33.971Z,97707.61
2019-03-28T23:20:00.349Z,97701.44
2019-03-28T23:22:26.603Z,97702.30
2019-03-28T23:24:52.835Z,97704.17
2019-03-28T23:27:19.103Z,97704.66
2019-03-28T23:29:45.357Z,97703.35
2019-03-28T23:32:12.992Z,97703.35
2019-03-28T23:34:39.592Z,97710.19
2019-03-28T23:37:05.740Z,97710.75
2019-03-28T23:39:31.939Z,97708.81
2019-03-28T23:41:58.034Z,97706.91
2019-03-28T23:44:24.241Z,97720.92
2019-03-28T23:46:50.513Z,97719.24
2019-03-28T23:49:16.751Z,97714.91
2019-03-28T23:51:43.019Z,97718.85
2019-03-28T23:54:09.529Z,97716.32
2019-03-28T23:56:36.916Z,97712.87
2019-03-28T23:59:03.610Z,97722.54
